Time;durP1;ratioP1;P1;durP2;ratioP2;P2;SDS_P1;SDS_P2;PMS_P1;PMS_P2;Temp;Humidity;BMP_temperature;BMP_pressure;BME280_temperature;BME280_humidity;BME280_pressure;Samples;Min_cycle;Max_cycle;Signal;HPM_P1;HPM_P2
2021/08/07 00:02:40;;;;;;;3.67;2.97;;;19.60;98.00;;;;;;5012174;28;20040;-73
2021/08/07 00:05:24;;;;;;;3.35;2.25;;;19.60;98.00;;;;;;5009938;28;20072;-73
2021/08/07 00:08:08;;;;;;;2.73;2.07;;;19.50;98.00;;;;;;5013294;28;20397;-73
2021/08/07 00:10:52;;;;;;;2.63;2.10;;;19.50;97.90;;;;;;5010363;28;20068;-73
2021/08/07 00:13:36;;;;;;;4.40;2.17;;;19.50;97.90;;;;;;5013229;28;20037;-73
2021/08/07 00:16:20;;;;;;;3.30;2.47;;;19.50;97.90;;;;;;5010825;28;20350;-73
2021/08/07 00:19:04;;;;;;;4.80;2.40;;;19.50;97.90;;;;;;5013111;28;20524;-74
2021/08/07 00:21:48;;;;;;;3.28;2.30;;;19.40;97.80;;;;;;5011627;28;20044;-73
2021/08/07 00:24:32;;;;;;;4.70;2.43;;;19.40;97.90;;;;;;5012064;28;20041;-73
2021/08/07 00:27:16;;;;;;;3.27;2.70;;;19.40;97.90;;;;;;5000540;28;20276;-73
2021/08/07 00:30:00;;;;;;;4.95;2.72;;;19.40;97.80;;;;;;5010406;28;20422;-73
2021/08/07 00:32:44;;;;;;;4.37;3.33;;;19.40;97.90;;;;;;5012732;28;20032;-76
2021/08/07 00:35:28;;;;;;;3.58;2.72;;;19.40;97.90;;;;;;5010550;28;20119;-76
2021/08/07 00:38:13;;;;;;;4.50;2.50;;;19.30;97.90;;;;;;5012503;28;20057;-76
2021/08/07 00:40:57;;;;;;;4.93;2.70;;;19.30;97.90;;;;;;5009287;28;20036;-76
2021/08/07 00:43:41;;;;;;;4.97;2.73;;;19.30;97.90;;;;;;5012771;28;20212;-77
2021/08/07 00:46:25;;;;;;;4.43;2.57;;;19.30;97.90;;;;;;4992343;28;20518;-76
2021/08/07 00:49:09;;;;;;;2.95;2.22;;;19.30;97.90;;;;;;4994094;28;20058;-76
2021/08/07 00:51:53;;;;;;;3.88;2.88;;;19.20;97.90;;;;;;5011076;28;20088;-76
2021/08/07 00:54:39;;;;;;;3.50;2.53;;;19.20;97.90;;;;;;5011766;28;20068;-73
2021/08/07 00:57:24;;;;;;;5.10;2.38;;;19.20;98.00;;;;;;4990466;28;20288;-74
2021/08/07 01:00:08;;;;;;;4.00;2.73;;;19.20;98.00;;;;;;5010495;28;20109;-73
2021/08/07 01:03:18;;;;;;;3.47;3.00;;;19.20;98.00;;;;;;5011278;28;20136;-73
2021/08/07 01:06:09;;;;;;;6.65;3.10;;;19.10;98.00;;;;;;5002575;28;20037;-73
2021/08/07 01:09:10;;;;;;;3.97;2.92;;;19.10;98.10;;;;;;5004878;28;20104;-70
2021/08/07 01:12:03;;;;;;;3.58;2.67;;;19.10;98.10;;;;;;5011420;28;20064;-72
2021/08/07 01:14:50;;;;;;;2.88;2.22;;;19.10;98.20;;;;;;5008138;28;20029;-73
2021/08/07 01:17:38;;;;;;;4.13;2.60;;;19.00;98.20;;;;;;5011872;28;20045;-72
2021/08/07 01:20:28;;;;;;;4.60;3.00;;;19.00;98.20;;;;;;5000395;28;20490;-74
2021/08/07 01:23:41;;;;;;;3.50;2.70;;;19.00;98.30;;;;;;5010424;28;20053;-74
2021/08/07 01:27:06;;;;;;;4.60;2.85;;;19.00;98.30;;;;;;5006093;28;20041;-74
2021/08/07 01:29:55;;;;;;;3.40;2.25;;;19.00;98.20;;;;;;5004337;28;20096;-74
2021/08/07 01:32:42;;;;;;;3.22;2.60;;;18.90;98.30;;;;;;4990868;28;20574;-73
2021/08/07 01:35:28;;;;;;;4.20;2.80;;;18.90;98.30;;;;;;4990227;28;20030;-73
2021/08/07 01:38:14;;;;;;;3.80;2.85;;;18.90;98.40;;;;;;5009991;28;20109;-75
2021/08/07 01:41:00;;;;;;;3.50;2.40;;;18.80;98.40;;;;;;4995193;28;20387;-75
2021/08/07 01:43:47;;;;;;;5.38;3.15;;;18.90;98.50;;;;;;5010941;28;20399;-75
2021/08/07 01:46:43;;;;;;;6.40;2.85;;;18.90;98.50;;;;;;4989904;28;20072;-75
2021/08/07 01:49:45;;;;;;;4.13;2.65;;;18.90;98.50;;;;;;5010665;28;20418;-76
2021/08/07 01:52:34;;;;;;;4.07;2.85;;;18.90;98.50;;;;;;5010949;28;20418;-75
2021/08/07 01:55:24;;;;;;;3.78;2.78;;;18.80;98.50;;;;;;4993821;28;20037;-75
2021/08/07 01:58:17;;;;;;;5.18;2.65;;;18.90;98.50;;;;;;5009803;28;20080;-73
2021/08/07 02:01:03;;;;;;;4.03;3.15;;;18.80;98.50;;;;;;4996238;28;20109;-75
2021/08/07 02:03:50;;;;;;;4.10;2.80;;;18.80;98.60;;;;;;5008901;28;20030;-75
2021/08/07 02:06:38;;;;;;;4.78;2.85;;;18.80;98.60;;;;;;5010751;28;20046;-75
2021/08/07 02:09:24;;;;;;;3.83;2.70;;;18.70;98.60;;;;;;5009018;28;20045;-75
2021/08/07 02:12:11;;;;;;;3.70;2.65;;;18.70;98.60;;;;;;5011679;28;20080;-75
2021/08/07 02:14:58;;;;;;;4.25;2.78;;;18.70;98.60;;;;;;5010183;28;20394;-75
2021/08/07 02:17:45;;;;;;;4.95;3.00;;;18.70;98.60;;;;;;5010426;28;20549;-73
2021/08/07 02:20:31;;;;;;;4.57;2.85;;;18.70;98.60;;;;;;5011058;28;20034;-74
2021/08/07 02:23:18;;;;;;;4.30;3.08;;;18.70;98.60;;;;;;5008484;28;20452;-75
2021/08/07 02:26:06;;;;;;;3.90;3.10;;;18.70;98.60;;;;;;5011358;28;20514;-75
2021/08/07 02:28:52;;;;;;;3.85;2.90;;;18.70;98.70;;;;;;5015644;28;20139;-75
2021/08/07 02:31:39;;;;;;;3.25;2.63;;;18.70;98.70;;;;;;5011517;28;20061;-75
2021/08/07 02:34:27;;;;;;;4.63;3.10;;;18.60;98.70;;;;;;5013421;28;20033;-75
2021/08/07 02:37:13;;;;;;;5.45;3.10;;;18.60;98.70;;;;;;5025436;28;20017;-75
2021/08/07 02:40:01;;;;;;;4.03;3.10;;;18.60;98.70;;;;;;5014788;28;20096;-76
2021/08/07 02:42:47;;;;;;;3.92;2.90;;;18.60;98.80;;;;;;5013195;28;20460;-76
2021/08/07 02:45:34;;;;;;;5.30;3.20;;;18.60;98.80;;;;;;4994693;28;20073;-75
2021/08/07 02:48:21;;;;;;;3.70;3.25;;;18.60;98.80;;;;;;5013724;28;20165;-74
2021/08/07 02:51:07;;;;;;;4.18;2.85;;;18.60;98.80;;;;;;5012999;28;20034;-74
2021/08/07 02:53:53;;;;;;;4.18;3.15;;;18.60;98.80;;;;;;5014006;28;20026;-74
2021/08/07 02:56:40;;;;;;;3.67;3.13;;;18.50;98.80;;;;;;5013243;28;20092;-74
2021/08/07 02:59:26;;;;;;;5.72;3.45;;;18.50;98.90;;;;;;5009209;28;20095;-74
2021/08/07 03:02:12;;;;;;;6.10;3.40;;;18.50;98.80;;;;;;5003729;28;20038;-74
2021/08/07 03:04:57;;;;;;;4.95;3.28;;;18.50;98.90;;;;;;5011239;28;20030;-75
2021/08/07 03:07:34;;;;;;;4.20;3.00;;;18.50;98.90;;;;;;5005533;28;20450;-74
2021/08/07 03:10:19;;;;;;;4.88;3.00;;;18.50;98.90;;;;;;4994454;28;20557;-73
2021/08/07 03:13:03;;;;;;;5.72;3.38;;;18.40;98.90;;;;;;5006941;28;20053;-75
2021/08/07 03:15:47;;;;;;;3.60;2.80;;;18.40;98.90;;;;;;5013719;28;20088;-75
2021/08/07 03:18:31;;;;;;;5.05;3.15;;;18.40;98.90;;;;;;5007343;28;20801;-75
2021/08/07 03:21:15;;;;;;;5.65;3.20;;;18.40;98.90;;;;;;5006767;28;20032;-75
2021/08/07 03:23:59;;;;;;;5.32;3.05;;;18.40;98.90;;;;;;5012784;28;20441;-75
2021/08/07 03:26:43;;;;;;;6.28;3.00;;;18.40;98.90;;;;;;5011503;28;20037;-76
2021/08/07 03:29:27;;;;;;;4.20;3.10;;;18.40;99.00;;;;;;4997022;28;20087;-76
2021/08/07 03:32:11;;;;;;;3.97;3.27;;;18.40;99.00;;;;;;5007838;28;20096;-73
2021/08/07 03:34:55;;;;;;;4.90;3.33;;;18.40;98.90;;;;;;5011271;28;20041;-72
2021/08/07 03:37:39;;;;;;;4.07;3.27;;;18.30;99.00;;;;;;5013828;28;20037;-72
2021/08/07 03:40:23;;;;;;;4.07;3.23;;;18.30;99.00;;;;;;5029906;28;20580;-72
2021/08/07 03:43:07;;;;;;;4.50;3.27;;;18.30;99.00;;;;;;5028173;28;20037;-73
2021/08/07 03:45:51;;;;;;;5.30;3.20;;;18.30;99.00;;;;;;4993878;28;20092;-73
2021/08/07 03:48:36;;;;;;;4.70;3.40;;;18.30;99.00;;;;;;4983010;28;20462;-73
2021/08/07 03:51:20;;;;;;;4.75;3.30;;;18.30;99.00;;;;;;4993434;28;20646;-73
2021/08/07 03:54:04;;;;;;;4.18;3.55;;;18.30;99.00;;;;;;4991509;28;20041;-73
2021/08/07 03:56:48;;;;;;;5.03;3.33;;;18.20;99.10;;;;;;4990170;28;20041;-73
2021/08/07 03:59:32;;;;;;;4.67;3.17;;;18.20;99.10;;;;;;4992238;28;20041;-73
2021/08/07 04:02:16;;;;;;;5.20;3.38;;;18.30;99.20;;;;;;4993417;28;20268;-72
2021/08/07 04:05:00;;;;;;;3.78;2.55;;;18.30;99.10;;;;;;4991683;28;20045;-73
2021/08/07 04:07:44;;;;;;;3.85;2.78;;;18.30;99.10;;;;;;4992108;28;20065;-73
2021/08/07 04:10:29;;;;;;;3.80;2.90;;;18.40;99.10;;;;;;4973950;28;20049;-72
2021/08/07 04:13:13;;;;;;;3.92;3.25;;;18.30;99.10;;;;;;4974905;28;20034;-73
2021/08/07 04:15:58;;;;;;;3.40;2.78;;;18.30;99.10;;;;;;4974257;28;20502;-73
2021/08/07 04:18:42;;;;;;;8.02;4.47;;;18.30;99.10;;;;;;4982549;28;20037;-73
2021/08/07 04:21:26;;;;;;;5.43;3.50;;;18.30;99.10;;;;;;4989859;28;20033;-73
2021/08/07 04:24:10;;;;;;;4.43;3.37;;;18.30;99.10;;;;;;4991338;28;20037;-73
2021/08/07 04:26:54;;;;;;;4.78;3.45;;;18.40;99.10;;;;;;4978230;28;20474;-74
2021/08/07 04:29:38;;;;;;;4.50;3.23;;;18.40;99.10;;;;;;4991483;28;20049;-73
2021/08/07 04:32:23;;;;;;;5.10;3.38;;;18.40;99.10;;;;;;4991237;28;20049;-73
2021/08/07 04:35:08;;;;;;;6.20;3.50;;;18.50;99.10;;;;;;4992165;28;20088;-72
2021/08/07 04:37:54;;;;;;;3.90;3.00;;;18.50;99.10;;;;;;4991583;28;20072;-79
2021/08/07 04:40:38;;;;;;;5.72;3.42;;;18.50;99.10;;;;;;5012386;28;20041;-82
2021/08/07 04:43:23;;;;;;;4.97;3.20;;;18.50;99.20;;;;;;5004787;28;20040;-79
2021/08/07 04:46:06;;;;;;;3.93;3.00;;;18.50;99.00;;;;;;4993129;28;20078;-79
2021/08/07 04:48:50;;;;;;;5.45;3.75;;;18.60;99.10;;;;;;4988309;28;20520;-80
2021/08/07 04:51:34;;;;;;;5.32;3.58;;;18.60;99.10;;;;;;5008762;28;20099;-81
2021/08/07 04:54:18;;;;;;;5.57;3.50;;;18.70;99.10;;;;;;4991125;28;20088;-80
2021/08/07 04:57:03;;;;;;;6.72;3.15;;;18.70;99.10;;;;;;4993845;28;20061;-79
2021/08/07 04:59:46;;;;;;;4.10;3.22;;;18.70;99.10;;;;;;5003424;28;20033;-79
2021/08/07 05:02:30;;;;;;;4.47;3.43;;;18.70;99.10;;;;;;5014127;28;20041;-79
2021/08/07 05:05:16;;;;;;;5.03;3.30;;;18.70;99.10;;;;;;5020620;28;20675;-80
2021/08/07 05:08:00;;;;;;;4.10;3.10;;;18.80;99.10;;;;;;5012409;28;20124;-79
2021/08/07 05:10:44;;;;;;;6.88;3.40;;;18.80;99.10;;;;;;5015269;28;20044;-79
2021/08/07 05:13:30;;;;;;;4.10;3.35;;;18.80;99.10;;;;;;5008489;28;20038;-80
2021/08/07 05:16:15;;;;;;;4.43;3.30;;;18.80;99.00;;;;;;5014435;28;20029;-78
2021/08/07 05:19:01;;;;;;;3.90;3.03;;;18.80;99.00;;;;;;5004919;28;20083;-79
2021/08/07 05:21:47;;;;;;;4.35;3.20;;;18.80;99.00;;;;;;5018559;28;20064;-84
2021/08/07 05:24:33;;;;;;;5.40;2.80;;;18.80;99.00;;;;;;5016898;28;20037;-87
2021/08/07 05:27:19;;;;;;;6.35;3.45;;;18.90;98.90;;;;;;5019422;28;20033;-85
2021/08/07 05:30:06;;;;;;;4.53;2.60;;;19.00;98.90;;;;;;5025526;28;20037;-85
2021/08/07 05:32:51;;;;;;;3.38;2.75;;;19.00;98.80;;;;;;4998997;28;20109;-76
2021/08/07 05:35:37;;;;;;;4.78;3.05;;;19.10;98.80;;;;;;5014537;28;20113;-76
2021/08/07 05:38:23;;;;;;;3.33;2.80;;;19.10;98.80;;;;;;5010349;28;20037;-75
2021/08/07 05:41:09;;;;;;;4.03;2.95;;;19.20;98.70;;;;;;4998846;28;20034;-76
2021/08/07 05:43:55;;;;;;;3.50;2.70;;;19.20;98.60;;;;;;5005720;28;20087;-75
2021/08/07 05:46:40;;;;;;;4.35;3.00;;;19.30;98.50;;;;;;5009976;28;20022;-77
2021/08/07 05:49:26;;;;;;;4.53;2.78;;;19.40;98.40;;;;;;5009121;28;20045;-75
2021/08/07 05:52:12;;;;;;;4.72;2.65;;;19.40;98.30;;;;;;5015659;28;20506;-75
2021/08/07 05:54:58;;;;;;;4.38;2.63;;;19.50;98.40;;;;;;5008678;28;20056;-76
2021/08/07 05:57:44;;;;;;;5.35;3.25;;;19.60;98.40;;;;;;5002201;28;20037;-76
2021/08/07 06:00:29;;;;;;;4.57;3.00;;;19.70;98.40;;;;;;5006855;28;20030;-76
2021/08/07 06:03:15;;;;;;;4.05;3.03;;;19.70;98.30;;;;;;5008889;28;20445;-76
2021/08/07 06:06:01;;;;;;;5.28;3.47;;;19.80;98.40;;;;;;5006846;28;20462;-76
2021/08/07 06:08:47;;;;;;;3.75;2.80;;;19.80;98.30;;;;;;5010102;28;20176;-76
2021/08/07 06:11:33;;;;;;;4.80;2.80;;;19.90;98.20;;;;;;5008962;28;20045;-78
2021/08/07 06:14:19;;;;;;;4.57;3.13;;;19.90;98.00;;;;;;5011197;28;20034;-77
2021/08/07 06:17:05;;;;;;;6.25;2.90;;;19.90;98.00;;;;;;5011474;28;20080;-76
2021/08/07 06:19:51;;;;;;;4.50;3.25;;;20.00;98.20;;;;;;5001263;28;20045;-76
2021/08/07 06:22:36;;;;;;;4.93;3.00;;;20.00;98.00;;;;;;5011892;28;20238;-75
2021/08/07 06:25:23;;;;;;;5.32;3.10;;;20.00;97.80;;;;;;5006292;28;20037;-75
2021/08/07 06:28:08;;;;;;;3.88;3.20;;;20.10;97.70;;;;;;5003885;28;20311;-75
2021/08/07 06:30:54;;;;;;;3.90;2.65;;;20.20;97.70;;;;;;5010760;28;20391;-75
2021/08/07 06:33:40;;;;;;;4.53;2.88;;;20.20;97.50;;;;;;5005134;28;20458;-75
2021/08/07 06:36:26;;;;;;;4.03;3.05;;;20.20;97.40;;;;;;5003313;28;20026;-74
2021/08/07 06:39:11;;;;;;;4.63;2.78;;;20.30;97.30;;;;;;5010038;28;20062;-75
2021/08/07 06:41:57;;;;;;;4.07;2.67;;;20.30;97.20;;;;;;4994051;28;20034;-75
2021/08/07 06:44:43;;;;;;;5.15;3.20;;;20.40;97.10;;;;;;5010658;28;20030;-74
2021/08/07 06:47:29;;;;;;;3.58;2.70;;;20.40;97.00;;;;;;5009129;28;20502;-75
2021/08/07 06:50:15;;;;;;;3.30;2.35;;;20.60;97.00;;;;;;5009563;28;20100;-74
2021/08/07 06:53:01;;;;;;;3.15;2.60;;;20.60;96.90;;;;;;5008698;28;20328;-75
2021/08/07 06:55:46;;;;;;;4.40;3.13;;;20.60;96.90;;;;;;5006050;28;20032;-75
2021/08/07 06:58:32;;;;;;;6.03;2.88;;;20.60;96.80;;;;;;5010050;28;20037;-74
2021/08/07 07:01:18;;;;;;;4.82;2.75;;;20.70;96.70;;;;;;5008622;28;20030;-74
2021/08/07 07:04:04;;;;;;;3.45;2.80;;;20.70;96.70;;;;;;5010072;28;20486;-74
2021/08/07 07:06:50;;;;;;;5.95;2.83;;;20.80;96.60;;;;;;5003853;28;20036;-75
2021/08/07 07:09:34;;;;;;;3.25;2.50;;;20.80;96.60;;;;;;5009277;28;20052;-76
2021/08/07 07:12:18;;;;;;;4.68;2.92;;;20.80;96.50;;;;;;5009061;28;20041;-75
2021/08/07 07:15:03;;;;;;;12.65;3.30;;;20.90;96.40;;;;;;5006900;28;20049;-75
2021/08/07 07:17:48;;;;;;;2.90;2.40;;;20.90;96.50;;;;;;5007171;28;20092;-75
2021/08/07 07:20:32;;;;;;;5.22;2.97;;;21.00;96.30;;;;;;5008960;28;20096;-76
2021/08/07 07:23:16;;;;;;;3.67;2.50;;;21.00;96.30;;;;;;5005820;28;20036;-76
2021/08/07 07:26:00;;;;;;;8.57;3.17;;;21.00;96.30;;;;;;5007414;28;20791;-75
2021/08/07 07:28:44;;;;;;;8.37;2.70;;;21.10;96.20;;;;;;5009346;28;20103;-76
2021/08/07 07:31:29;;;;;;;5.73;2.50;;;21.10;96.00;;;;;;5003278;28;20316;-78
2021/08/07 07:34:13;;;;;;;5.10;2.78;;;21.20;96.00;;;;;;5001752;28;20315;-79
2021/08/07 07:36:57;;;;;;;5.63;2.83;;;21.20;95.90;;;;;;5006631;28;20103;-76
2021/08/07 07:39:41;;;;;;;5.05;2.53;;;21.30;95.90;;;;;;5009086;28;20045;-76
2021/08/07 07:42:26;;;;;;;3.35;2.40;;;21.30;95.70;;;;;;5003036;28;20084;-76
2021/08/07 07:45:10;;;;;;;3.72;2.35;;;21.40;95.60;;;;;;5006699;28;20389;-76
2021/08/07 07:47:54;;;;;;;4.43;3.00;;;21.40;95.50;;;;;;5002613;28;20091;-77
2021/08/07 07:50:39;;;;;;;3.47;2.55;;;21.50;95.60;;;;;;4989957;28;20100;-77
2021/08/07 07:53:23;;;;;;;9.82;3.08;;;21.50;95.40;;;;;;5001727;28;20048;-76
2021/08/07 07:56:07;;;;;;;3.22;2.75;;;21.60;95.40;;;;;;5000315;28;20053;-77
2021/08/07 07:58:51;;;;;;;3.28;2.40;;;21.60;95.30;;;;;;5005217;28;20069;-76
2021/08/07 08:01:36;;;;;;;8.60;3.08;;;21.60;95.10;;;;;;5005970;28;20438;-76
2021/08/07 08:04:20;;;;;;;5.28;2.97;;;21.70;95.00;;;;;;5009014;28;20125;-76
2021/08/07 08:07:04;;;;;;;3.50;2.60;;;21.70;94.90;;;;;;4988225;28;20049;-76
2021/08/07 08:09:48;;;;;;;5.13;2.17;;;21.70;94.80;;;;;;5010217;28;20299;-76
2021/08/07 08:12:32;;;;;;;6.20;2.37;;;21.80;94.70;;;;;;5007507;28;20107;-73
2021/08/07 08:15:18;;;;;;;5.57;2.47;;;21.80;94.60;;;;;;4991668;28;20061;-76
2021/08/07 08:18:02;;;;;;;3.20;2.30;;;21.90;94.60;;;;;;5001981;28;20037;-75
2021/08/07 08:20:46;;;;;;;3.20;2.30;;;22.00;94.50;;;;;;5006796;28;20552;-75
2021/08/07 08:23:12;;;;;;;5.10;2.47;;;22.00;94.40;;;;;;5010723;28;20025;-76
2021/08/07 08:25:37;;;;;;;3.80;2.40;;;22.00;94.30;;;;;;5011921;28;20022;-75
2021/08/07 08:28:05;;;;;;;5.05;2.20;;;22.10;94.40;;;;;;4999143;28;20030;-76
2021/08/07 08:30:31;;;;;;;9.40;2.85;;;22.10;94.10;;;;;;5011510;28;20120;-76
2021/08/07 08:32:56;;;;;;;6.57;2.20;;;22.20;94.20;;;;;;4996911;28;20113;-76
2021/08/07 08:35:22;;;;;;;5.05;2.63;;;22.30;94.00;;;;;;5010481;28;20022;-75
2021/08/07 08:37:48;;;;;;;4.00;1.90;;;22.30;93.90;;;;;;5015845;28;20049;-76
2021/08/07 08:40:14;;;;;;;3.17;2.17;;;22.50;93.70;;;;;;5012011;28;20026;-76
2021/08/07 08:42:41;;;;;;;6.50;2.00;;;22.60;93.50;;;;;;5012264;28;20481;-76
2021/08/07 08:45:07;;;;;;;3.78;2.25;;;22.60;93.30;;;;;;4997943;28;20138;-76
2021/08/07 08:47:35;;;;;;;3.97;2.70;;;22.70;93.40;;;;;;5011763;28;20022;-76
2021/08/07 08:50:00;;;;;;;3.78;2.17;;;22.70;93.30;;;;;;5011022;28;20502;-75
2021/08/07 08:52:29;;;;;;;5.78;2.40;;;22.80;93.10;;;;;;5013329;28;20033;-76
2021/08/07 08:54:55;;;;;;;2.75;1.88;;;22.90;93.20;;;;;;5008367;28;20368;-76
2021/08/07 08:57:21;;;;;;;5.20;2.40;;;23.00;92.90;;;;;;5008698;28;20033;-75
2021/08/07 08:59:47;;;;;;;10.18;3.58;;;23.10;92.90;;;;;;5003681;28;20030;-76
2021/08/07 09:02:13;;;;;;;6.20;2.58;;;23.20;92.50;;;;;;5008199;28;20075;-76
2021/08/07 09:04:42;;;;;;;3.42;2.00;;;23.20;92.40;;;;;;5008077;28;20123;-76
2021/08/07 09:07:11;;;;;;;4.43;2.20;;;23.30;92.30;;;;;;5010041;28;20041;-75
2021/08/07 09:09:43;;;;;;;3.22;2.03;;;23.30;92.30;;;;;;5010074;28;20091;-75
2021/08/07 09:12:09;;;;;;;3.22;2.10;;;23.40;92.10;;;;;;5011127;28;20344;-75
2021/08/07 09:14:41;;;;;;;5.60;2.35;;;23.50;91.90;;;;;;5010501;28;20370;-75
2021/08/07 09:17:25;;;;;;;3.63;2.20;;;23.50;91.70;;;;;;4999248;28;20073;-75
2021/08/07 09:19:54;;;;;;;3.20;1.83;;;23.60;91.50;;;;;;4990365;28;20446;-75
2021/08/07 09:22:21;;;;;;;5.88;1.90;;;23.70;91.20;;;;;;5005662;28;20491;-75
2021/08/07 09:25:12;;;;;;;1.73;1.50;;;23.90;91.30;;;;;;5009697;28;20037;-75
2021/08/07 09:27:56;;;;;;;3.20;1.85;;;23.90;90.80;;;;;;5010941;28;20252;-75
2021/08/07 09:30:42;;;;;;;2.38;1.83;;;24.00;91.00;;;;;;5003703;28;20041;-75
2021/08/07 09:33:29;;;;;;;2.53;1.90;;;24.00;90.70;;;;;;5008987;28;20044;-76
2021/08/07 09:36:13;;;;;;;3.90;1.77;;;24.10;91.00;;;;;;5009401;28;20037;-75
2021/08/07 09:38:57;;;;;;;4.95;1.70;;;24.20;90.50;;;;;;5010319;28;20076;-75
2021/08/07 09:41:58;;;;;;;6.00;1.73;;;24.20;90.40;;;;;;5006111;28;20037;-75
2021/08/07 09:44:42;;;;;;;1.85;1.55;;;24.30;90.40;;;;;;5008486;28;20040;-76
2021/08/07 09:47:15;;;;;;;4.07;1.88;;;24.30;90.20;;;;;;5005460;28;20041;-75
2021/08/07 09:49:43;;;;;;;2.65;1.80;;;24.40;89.50;;;;;;4954617;28;978732;-76
2021/08/07 09:52:09;;;;;;;2.60;2.00;;;24.50;89.50;;;;;;4989111;28;20034;-76
2021/08/07 09:54:43;;;;;;;2.13;1.50;;;24.50;89.60;;;;;;4988962;28;20117;-76
2021/08/07 09:57:21;;;;;;;1.98;1.52;;;24.60;88.80;;;;;;4987990;28;20388;-76
2021/08/07 09:59:49;;;;;;;3.00;1.42;;;24.70;87.60;;;;;;4984958;28;20094;-75
2021/08/07 10:02:21;;;;;;;3.70;1.50;;;24.80;87.20;;;;;;4986455;28;20054;-75
2021/08/07 10:04:47;;;;;;;4.07;1.60;;;24.80;85.70;;;;;;4992440;28;20041;-75
2021/08/07 10:07:13;;;;;;;2.83;1.70;;;24.90;85.90;;;;;;4992788;28;20035;-75
2021/08/07 10:09:39;;;;;;;3.17;1.80;;;25.00;85.00;;;;;;4990269;28;20038;-75
2021/08/07 10:12:09;;;;;;;2.70;1.90;;;25.10;85.40;;;;;;4992996;28;20027;-75
2021/08/07 10:14:36;;;;;;;2.17;1.50;;;25.20;85.10;;;;;;4991266;28;20027;-75
2021/08/07 10:17:04;;;;;;;3.05;1.77;;;25.30;84.50;;;;;;4990579;28;20121;-75
2021/08/07 10:19:32;;;;;;;2.45;1.60;;;25.40;84.40;;;;;;4988449;28;20467;-75
2021/08/07 10:21:58;;;;;;;1.95;1.40;;;25.50;84.90;;;;;;4987229;28;20081;-75
2021/08/07 10:24:24;;;;;;;2.15;1.60;;;25.50;84.90;;;;;;4991212;28;20478;-75
2021/08/07 10:26:51;;;;;;;2.78;1.83;;;25.70;84.30;;;;;;4990251;28;20446;-74
2021/08/07 10:29:23;;;;;;;2.35;1.60;;;25.70;82.30;;;;;;4991292;28;20042;-74
2021/08/07 10:31:52;;;;;;;2.63;1.60;;;25.80;81.20;;;;;;4986656;28;20057;-74
2021/08/07 10:34:18;;;;;;;3.80;1.80;;;25.80;80.90;;;;;;4974197;28;20029;-74
2021/08/07 10:36:44;;;;;;;2.80;1.50;;;25.90;81.00;;;;;;4989248;28;20031;-75
2021/08/07 10:39:09;;;;;;;2.70;1.50;;;25.90;80.80;;;;;;4990501;28;20399;-75
2021/08/07 10:41:36;;;;;;;2.00;1.52;;;26.00;80.60;;;;;;4990130;28;20034;-75
2021/08/07 10:44:04;;;;;;;2.03;1.38;;;26.10;79.40;;;;;;4986164;28;20437;-74
2021/08/07 10:46:30;;;;;;;2.50;1.60;;;26.20;79.10;;;;;;4989515;28;20030;-74
2021/08/07 10:48:56;;;;;;;3.55;1.52;;;26.20;79.50;;;;;;4975953;28;20046;-74
2021/08/07 10:51:21;;;;;;;2.35;1.27;;;26.10;77.50;;;;;;4991979;28;20041;-80
2021/08/07 10:53:48;;;;;;;2.00;1.60;;;26.20;78.20;;;;;;5007321;28;20028;-74
2021/08/07 10:56:29;;;;;;;2.47;1.48;;;26.20;78.70;;;;;;5004334;28;20034;-73
2021/08/07 10:58:56;;;;;;;14.18;5.78;;;26.20;78.00;;;;;;5001989;28;20026;-73
2021/08/07 11:01:42;;;;;;;4.35;2.97;;;26.10;78.00;;;;;;5005314;28;20126;-72
2021/08/07 11:04:46;;;;;;;2.47;1.40;;;26.20;77.70;;;;;;4972022;28;20552;-73
2021/08/07 11:07:31;;;;;;;2.05;1.50;;;26.10;76.80;;;;;;4981873;28;20033;-73
2021/08/07 11:10:17;;;;;;;1.80;1.27;;;26.20;77.30;;;;;;4976228;28;20041;-73
2021/08/07 11:13:21;;;;;;;3.38;1.52;;;26.30;77.50;;;;;;4991722;28;20109;-73
2021/08/07 11:16:18;;;;;;;2.47;1.45;;;26.30;76.80;;;;;;4992673;28;20033;-71
2021/08/07 11:19:40;;;;;;;2.33;1.30;;;26.40;75.50;;;;;;4988029;28;20080;-71
2021/08/07 11:25:23;;;;;;;2.33;1.35;;;26.50;74.20;;;;;;4989473;28;20060;-71
2021/08/07 11:28:09;;;;;;;1.95;1.20;;;26.50;73.70;;;;;;4986300;28;20805;-72
2021/08/07 11:31:14;;;;;;;3.33;1.70;;;26.70;73.80;;;;;;4995287;28;20811;-74
2021/08/07 11:34:21;;;;;;;2.53;1.40;;;26.70;72.80;;;;;;4986311;28;20088;-74
2021/08/07 11:37:14;;;;;;;5.40;1.60;;;26.80;72.80;;;;;;4990530;28;20077;-78
2021/08/07 11:40:08;;;;;;;5.55;1.70;;;26.80;72.20;;;;;;4988825;28;20073;-78
2021/08/07 11:42:51;;;;;;;2.47;1.60;;;26.80;71.10;;;;;;4992609;28;20037;-77
2021/08/07 11:45:36;;;;;;;1.88;1.30;;;26.90;70.60;;;;;;4979385;28;20041;-78
2021/08/07 11:48:34;;;;;;;3.00;1.45;;;26.90;70.00;;;;;;4990145;28;20049;-78
2021/08/07 11:51:27;;;;;;;2.83;1.45;;;26.90;70.10;;;;;;4991796;28;20052;-78
2021/08/07 11:54:14;;;;;;;1.50;1.20;;;27.00;69.40;;;;;;4976579;28;20064;-78
2021/08/07 11:56:58;;;;;;;3.20;1.80;;;27.00;69.30;;;;;;4981284;28;20048;-77
2021/08/07 11:59:42;;;;;;;1.73;1.30;;;27.10;68.70;;;;;;4988245;28;20044;-78
2021/08/07 12:02:26;;;;;;;1.52;1.20;;;27.20;68.90;;;;;;4989235;28;20396;-78
2021/08/07 12:05:10;;;;;;;1.70;1.23;;;27.20;67.60;;;;;;4974386;28;20096;-77
2021/08/07 12:08:11;;;;;;;2.33;1.10;;;27.20;67.60;;;;;;4989698;28;20045;-77
2021/08/07 12:10:58;;;;;;;2.50;1.30;;;27.30;67.10;;;;;;4975294;28;20098;-77
2021/08/07 12:13:45;;;;;;;2.35;1.48;;;27.40;67.30;;;;;;4981319;28;20032;-77
2021/08/07 12:16:38;;;;;;;2.58;1.27;;;27.30;66.30;;;;;;4991205;28;20501;-77
2021/08/07 12:19:24;;;;;;;3.05;1.65;;;27.30;66.10;;;;;;4990525;28;20068;-77
2021/08/07 12:22:08;;;;;;;1.38;1.08;;;27.40;66.20;;;;;;4987973;28;20092;-77
2021/08/07 12:25:04;;;;;;;1.13;1.02;;;27.40;65.80;;;;;;4988623;28;20077;-76
2021/08/07 12:28:17;;;;;;;1.45;1.20;;;27.50;65.70;;;;;;4986840;28;20612;-79
2021/08/07 12:31:02;;;;;;;2.95;1.48;;;27.50;65.80;;;;;;4976560;28;20517;-77
2021/08/07 12:33:46;;;;;;;1.92;1.10;;;27.50;66.00;;;;;;4981222;28;20034;-79
2021/08/07 12:36:30;;;;;;;2.40;1.42;;;27.50;65.30;;;;;;4970676;28;20045;-78
2021/08/07 12:39:15;;;;;;;2.00;1.35;;;27.60;65.10;;;;;;4994572;28;20116;-81
2021/08/07 12:41:59;;;;;;;2.28;1.30;;;27.60;64.00;;;;;;4990093;28;20525;-78
2021/08/07 12:44:54;;;;;;;1.38;1.20;;;27.70;63.00;;;;;;4981137;28;20045;-79
2021/08/07 12:47:38;;;;;;;2.13;1.00;;;27.70;62.10;;;;;;4991983;28;20072;-79
2021/08/07 12:50:25;;;;;;;2.22;1.20;;;27.70;61.30;;;;;;5008546;28;20615;-79
2021/08/07 12:53:09;;;;;;;3.60;0.95;;;27.70;61.60;;;;;;5007352;28;20063;-79
2021/08/07 12:55:54;;;;;;;1.85;1.33;;;27.70;60.50;;;;;;5003422;28;20088;-78
2021/08/07 12:58:38;;;;;;;;;;;27.70;61.00;;;;;;5026163;28;20098;-79
2021/08/07 13:01:22;;;;;;;1.52;1.10;;;27.60;62.00;;;;;;5028701;28;19900;-78
2021/08/07 13:04:09;;;;;;;1.90;1.63;;;27.50;60.40;;;;;;5027278;28;20076;-79
2021/08/07 13:07:00;;;;;;;1.75;1.30;;;27.40;60.10;;;;;;5005718;28;20301;-78
2021/08/07 13:09:46;;;;;;;2.03;1.45;;;27.40;60.60;;;;;;5000636;28;20030;-79
2021/08/07 13:12:42;;;;;;;2.10;1.30;;;27.50;60.40;;;;;;5005362;28;20470;-79
2021/08/07 13:15:28;;;;;;;1.38;0.95;;;27.60;60.50;;;;;;5001240;28;20052;-78
2021/08/07 13:18:14;;;;;;;2.28;1.40;;;27.60;60.00;;;;;;4989826;28;20533;-78
2021/08/07 13:21:00;;;;;;;1.85;1.30;;;27.60;59.60;;;;;;5011229;28;20061;-78
2021/08/07 13:23:46;;;;;;;1.40;1.08;;;27.70;60.00;;;;;;4992669;28;20080;-78
2021/08/07 13:26:32;;;;;;;1.38;1.15;;;27.70;59.60;;;;;;5008775;28;20064;-78
2021/08/07 13:29:19;;;;;;;2.60;1.25;;;27.80;59.20;;;;;;5006572;28;20036;-77
2021/08/07 13:32:24;;;;;;;2.58;1.33;;;27.90;59.30;;;;;;5016520;28;20395;-78
2021/08/07 13:35:16;;;;;;;3.13;1.45;;;27.90;59.30;;;;;;5002662;28;20482;-77
2021/08/07 13:38:02;;;;;;;1.65;1.20;;;27.90;59.00;;;;;;5009033;28;20033;-78
2021/08/07 13:40:48;;;;;;;1.60;1.20;;;27.90;57.90;;;;;;5005844;28;20030;-79
2021/08/07 13:43:34;;;;;;;2.80;1.27;;;27.90;57.80;;;;;;4998699;28;20499;-78
2021/08/07 13:46:20;;;;;;;1.83;1.40;;;27.90;58.00;;;;;;5000040;28;20365;-79
2021/08/07 13:49:07;;;;;;;2.88;1.30;;;27.90;58.50;;;;;;5007143;28;20049;-77
2021/08/07 13:51:53;;;;;;;2.88;1.38;;;27.90;58.30;;;;;;4994164;28;20098;-79
2021/08/07 13:54:39;;;;;;;2.40;1.52;;;27.90;58.40;;;;;;5006415;28;20046;-77
2021/08/07 13:57:25;;;;;;;3.35;1.60;;;27.90;58.60;;;;;;5008905;28;20034;-77
2021/08/07 14:00:11;;;;;;;2.38;1.20;;;28.00;59.30;;;;;;5010498;28;20421;-77
2021/08/07 14:02:57;;;;;;;2.13;1.40;;;28.00;58.60;;;;;;5008410;28;20026;-78
2021/08/07 14:05:43;;;;;;;2.80;1.80;;;28.00;57.90;;;;;;5005437;28;20037;-77
2021/08/07 14:08:29;;;;;;;2.72;1.40;;;28.00;57.90;;;;;;4999768;28;20065;-78
2021/08/07 14:11:16;;;;;;;2.00;1.45;;;28.00;58.20;;;;;;5007698;28;20065;-78
2021/08/07 14:14:02;;;;;;;2.25;1.20;;;28.00;57.10;;;;;;5008425;28;20030;-77
2021/08/07 14:16:52;;;;;;;2.00;1.10;;;28.00;56.50;;;;;;5009081;28;20030;-77